createdAt,value
2023-01-15T00:00:42.334Z,65.966797
2023-01-15T00:01:50.996Z,66.821289
2023-01-15T00:02:58.752Z,66.204834
2023-01-15T00:04:08.454Z,67.126465
2023-01-15T00:05:16.124Z,67.028809
2023-01-15T00:06:23.990Z,67.84668
2023-01-15T00:07:32.783Z,67.541504
2023-01-15T00:08:41.502Z,67.950439
2023-01-15T00:09:51.165Z,68.395996
2023-01-15T00:10:58.826Z,69.628906
2023-01-15T00:12:07.536Z,69.628906
2023-01-15T00:13:17.261Z,70.245361
2023-01-15T00:14:25.915Z,69.628906
2023-01-15T00:15:35.691Z,70.275879
2023-01-15T00:16:44.390Z,70.898438
2023-01-15T00:17:52.293Z,70.898438
2023-01-15T00:19:00.039Z,71.307373
2023-01-15T00:20:09.841Z,70.996094
2023-01-15T00:21:18.618Z,71.514893
2023-01-15T00:22:26.315Z,71.411133
2023-01-15T00:23:35.050Z,71.411133
2023-01-15T00:24:41.802Z,71.307373
2023-01-15T00:25:51.577Z,70.587158
2023-01-15T00:26:59.302Z,70.690918
2023-01-15T00:28:09.048Z,70.794678
2023-01-15T00:29:17.773Z,70.587158
2023-01-15T00:30:24.514Z,70.996094
2023-01-15T00:31:34.270Z,70.996094
2023-01-15T00:32:42.924Z,71.411133
2023-01-15T00:33:51.622Z,71.203613
2023-01-15T00:35:00.317Z,71.203613
2023-01-15T00:36:08.989Z,71.203613
2023-01-15T00:37:17.691Z,69.250488
2023-01-15T00:38:25.347Z,69.219971
2023-01-15T00:39:35.022Z,68.597412
2023-01-15T00:40:43.764Z,68.908691
2023-01-15T00:41:51.557Z,67.749023
2023-01-15T00:43:01.188Z,68.566895
2023-01-15T00:44:07.959Z,68.261719
2023-01-15T00:45:16.677Z,67.541504
2023-01-15T00:46:25.414Z,67.749023
2023-01-15T00:47:34.181Z,68.157959
2023-01-15T00:48:42.936Z,67.230225
2023-01-15T00:49:50.610Z,68.054199
2023-01-15T00:50:59.315Z,68.261719
2023-01-15T00:52:07.059Z,67.950439
2023-01-15T00:53:16.760Z,67.950439
2023-01-15T00:54:26.446Z,67.333984
2023-01-15T00:55:36.098Z,67.028809
2023-01-15T00:56:44.877Z,67.333984
2023-01-15T00:57:54.600Z,67.028809
2023-01-15T00:59:04.355Z,68.023682
2023-01-15T01:00:14.301Z,68.261719
2023-01-15T01:01:21.157Z,68.054199
2023-01-15T01:02:30.660Z,67.749023
2023-01-15T01:03:40.320Z,67.749023
2023-01-15T01:04:49.003Z,67.749023
2023-01-15T01:05:58.699Z,69.287109
2023-01-15T01:07:08.379Z,69.287109
2023-01-15T01:08:18.046Z,69.903564
2023-01-15T01:09:26.718Z,69.287109
2023-01-15T01:10:36.467Z,69.494629
2023-01-15T01:11:45.172Z,69.085693
2023-01-15T01:12:52.923Z,69.287109
2023-01-15T01:14:01.598Z,68.463135
2023-01-15T01:15:08.427Z,68.670654
2023-01-15T01:16:17.243Z,68.878174
2023-01-15T01:17:26.917Z,68.261719
2023-01-15T01:18:36.608Z,68.566895
2023-01-15T01:19:46.303Z,68.157959
2023-01-15T01:20:55.003Z,67.950439
2023-01-15T01:22:03.670Z,67.950439
2023-01-15T01:23:13.416Z,68.157959
2023-01-15T01:24:22.175Z,68.878174
2023-01-15T01:25:32.283Z,70.111084
2023-01-15T01:26:42.043Z,69.219971
2023-01-15T01:27:49.895Z,69.012451
2023-01-15T01:28:59.558Z,69.732666
2023-01-15T01:30:08.277Z,70.245361
2023-01-15T01:31:16.963Z,70.861816
2023-01-15T01:32:23.668Z,71.069336
2023-01-15T01:33:32.424Z,70.758057
2023-01-15T01:34:41.152Z,70.245361
2023-01-15T01:35:49.858Z,70.452881
2023-01-15T01:36:59.528Z,70.965576
2023-01-15T01:38:08.310Z,71.789551
2023-01-15T01:39:17.047Z,71.374512
2023-01-15T01:40:25.731Z,71.893311
2023-01-15T01:41:35.429Z,72.198486
2023-01-15T01:42:43.151Z,72.851562
2023-01-15T01:43:50.873Z,72.540283
2023-01-15T01:44:59.575Z,72.442627
2023-01-15T01:46:06.289Z,72.540283
2023-01-15T01:47:16.013Z,72.955322
2023-01-15T01:48:25.681Z,73.059082
2023-01-15T01:49:35.422Z,72.747803
2023-01-15T01:50:44.082Z,73.779297
2023-01-15T01:51:53.795Z,73.571777
2023-01-15T01:53:02.456Z,73.980713
2023-01-15T01:54:12.093Z,73.571777
2023-01-15T01:55:21.055Z,75.115967
2023-01-15T01:56:30.861Z,75.115967
2023-01-15T01:57:39.607Z,75.048828
2023-01-15T01:58:47.359Z,75.354004
2023-01-15T01:59:56.152Z,75.354004
2023-01-15T02:01:06.036Z,75.457764
2023-01-15T02:02:15.693Z,75.665283
2023-01-15T02:03:25.301Z,75.769043
2023-01-15T02:04:35.960Z,76.489258
2023-01-15T02:05:45.648Z,76.593018
2023-01-15T02:06:55.338Z,77.038574
2023-01-15T02:08:04.068Z,76.831055
2023-01-15T02:09:10.747Z,76.934814
2023-01-15T02:10:18.574Z,76.934814
2023-01-15T02:11:27.309Z,76.11084
2023-01-15T02:12:37.231Z,76.727295
2023-01-15T02:13:44.940Z,76.318359
2023-01-15T02:14:53.654Z,76.525879
2023-01-15T02:16:03.439Z,76.831055
2023-01-15T02:17:12.199Z,76.831055
2023-01-15T02:18:19.931Z,77.246094
2023-01-15T02:19:28.649Z,76.831055
2023-01-15T02:20:38.354Z,77.142334
2023-01-15T02:21:47.036Z,77.246094
2023-01-15T02:22:55.743Z,77.349854
2023-01-15T02:24:04.524Z,77.142334
2023-01-15T02:25:13.310Z,77.655029
2023-01-15T02:26:23.107Z,77.966309
2023-01-15T02:27:31.836Z,77.453613
2023-01-15T02:28:41.524Z,77.55127
2023-01-15T02:29:51.255Z,77.453613
2023-01-15T02:30:59.915Z,76.934814
2023-01-15T02:32:06.623Z,77.038574
2023-01-15T02:33:15.327Z,76.794434
2023-01-15T02:34:25.005Z,77.416992
2023-01-15T02:35:33.729Z,77.001953
2023-01-15T02:36:42.467Z,77.001953
2023-01-15T02:37:50.204Z,76.794434
2023-01-15T02:38:59.999Z,77.001953
2023-01-15T02:40:08.804Z,77.209473
2023-01-15T02:41:17.537Z,77.105713
2023-01-15T02:42:25.261Z,77.105713
2023-01-15T02:43:34.173Z,77.001953
2023-01-15T02:44:43.023Z,76.898193
2023-01-15T02:45:52.996Z,76.794434
2023-01-15T02:47:02.641Z,76.794434
2023-01-15T02:48:10.410Z,77.001953
2023-01-15T02:49:18.126Z,76.245117
2023-01-15T02:50:26.809Z,76.348877
2023-01-15T02:51:33.557Z,76.141357
2023-01-15T02:52:42.292Z,76.141357
2023-01-15T02:53:50.973Z,76.245117
2023-01-15T02:55:00.657Z,76.660156
2023-01-15T02:56:09.344Z,76.763916
2023-01-15T02:57:18.997Z,76.660156
2023-01-15T02:58:28.662Z,76.861572
2023-01-15T02:59:37.332Z,76.763916
2023-01-15T03:00:45.141Z,76.556396
2023-01-15T03:01:54.879Z,76.043701
2023-01-15T03:03:04.458Z,76.452637
2023-01-15T03:04:13.194Z,76.141357
2023-01-15T03:05:21.873Z,76.452637
2023-01-15T03:06:31.536Z,76.348877
2023-01-15T03:07:40.236Z,76.452637
2023-01-15T03:08:48.973Z,76.452637
2023-01-15T03:09:58.716Z,76.452637
2023-01-15T03:11:06.409Z,76.660156
2023-01-15T03:12:16.141Z,76.861572
2023-01-15T03:13:25.835Z,76.861572
2023-01-15T03:14:35.522Z,76.763916
2023-01-15T03:15:44.235Z,76.623535
2023-01-15T03:16:53.970Z,76.416016
2023-01-15T03:18:03.647Z,76.2146
2023-01-15T03:19:13.370Z,76.312256
2023-01-15T03:20:22.053Z,76.519775
2023-01-15T03:21:30.801Z,76.416016
2023-01-15T03:22:39.507Z,76.416016
2023-01-15T03:23:49.233Z,76.831055
2023-01-15T03:24:57.923Z,76.928711
2023-01-15T03:26:06.628Z,77.032471
2023-01-15T03:27:16.295Z,76.928711
2023-01-15T03:28:25.970Z,77.23999
2023-01-15T03:29:33.744Z,77.752686
2023-01-15T03:30:41.578Z,78.68042
2023-01-15T03:31:50.443Z,78.991699
2023-01-15T03:32:59.238Z,79.504395
2023-01-15T03:34:07.928Z,80.26123
2023-01-15T03:35:15.599Z,80.46875
2023-01-15T03:36:23.293Z,80.877686
2023-01-15T03:37:33.035Z,80.46875
2023-01-15T03:38:41.759Z,80.670166
2023-01-15T03:39:50.476Z,81.085205
2023-01-15T03:40:57.139Z,80.877686
2023-01-15T03:42:03.893Z,80.773926
2023-01-15T03:43:12.593Z,80.773926
2023-01-15T03:44:21.307Z,80.670166
2023-01-15T03:45:30.039Z,80.773926
2023-01-15T03:46:38.823Z,80.566406
2023-01-15T03:47:46.544Z,81.048584
2023-01-15T03:48:56.237Z,81.390381
2023-01-15T03:50:03.978Z,81.286621
2023-01-15T03:51:12.660Z,80.877686
2023-01-15T03:52:20.373Z,81.048584
2023-01-15T03:53:30.261Z,81.70166
2023-01-15T03:54:38.772Z,81.390381
2023-01-15T03:55:48.465Z,81.25
2023-01-15T03:56:57.147Z,81.561279
2023-01-15T03:58:05.824Z,81.80542
2023-01-15T03:59:14.547Z,81.048584
2023-01-15T04:00:24.283Z,81.048584
2023-01-15T04:01:34.126Z,81.25
2023-01-15T04:02:42.754Z,81.25
2023-01-15T04:03:50.488Z,81.45752
2023-01-15T04:04:58.265Z,81.25
2023-01-15T04:06:07.121Z,81.14624
2023-01-15T04:07:15.890Z,81.14624
2023-01-15T04:08:22.630Z,81.35376
2023-01-15T04:09:31.325Z,81.14624
2023-01-15T04:10:41.087Z,81.35376
2023-01-15T04:11:48.790Z,81.45752
2023-01-15T04:12:57.514Z,81.561279
2023-01-15T04:14:06.176Z,81.561279
2023-01-15T04:15:13.872Z,81.25
2023-01-15T04:16:26.241Z,81.45752
2023-01-15T04:17:34.925Z,81.35376
2023-01-15T04:18:42.639Z,81.45752
2023-01-15T04:19:52.320Z,81.665039
2023-01-15T04:21:01.024Z,81.45752
2023-01-15T04:22:10.757Z,81.866455
2023-01-15T04:23:19.184Z,81.866455
2023-01-15T04:24:27.983Z,81.970215
2023-01-15T04:25:36.595Z,81.866455
2023-01-15T04:26:44.312Z,81.665039
2023-01-15T04:27:53.053Z,81.762695
2023-01-15T04:29:01.775Z,81.665039
2023-01-15T04:30:11.588Z,81.762695
2023-01-15T04:31:19.289Z,81.762695
2023-01-15T04:32:29.017Z,81.866455
2023-01-15T04:33:36.727Z,81.866455
2023-01-15T04:34:45.465Z,81.665039
2023-01-15T04:35:53.361Z,81.762695
2023-01-15T04:37:01.132Z,81.970215
2023-01-15T04:38:08.868Z,81.762695
2023-01-15T04:39:16.590Z,81.665039
2023-01-15T04:40:24.329Z,81.762695
2023-01-15T04:41:33.139Z,81.970215
2023-01-15T04:42:41.880Z,81.762695
2023-01-15T04:43:49.537Z,81.866455
2023-01-15T04:44:56.352Z,81.665039
2023-01-15T04:46:04.177Z,81.866455
2023-01-15T04:47:12.772Z,81.866455
2023-01-15T04:48:21.473Z,81.762695
2023-01-15T04:49:30.845Z,81.970215
2023-01-15T04:50:40.392Z,82.281494
2023-01-15T04:51:48.225Z,82.281494
2023-01-15T04:52:57.936Z,82.177734
2023-01-15T04:54:07.671Z,82.281494
2023-01-15T04:55:17.750Z,82.281494
2023-01-15T04:56:27.451Z,82.177734
2023-01-15T04:57:36.129Z,81.970215
2023-01-15T04:58:44.937Z,82.073975
2023-01-15T04:59:54.611Z,81.970215
2023-01-15T05:01:03.438Z,82.073975
2023-01-15T05:02:13.536Z,81.762695
2023-01-15T05:03:21.694Z,81.762695
2023-01-15T05:04:30.546Z,82.073975
2023-01-15T05:05:37.254Z,82.385254
2023-01-15T05:06:46.968Z,82.073975
2023-01-15T05:07:55.623Z,81.970215
2023-01-15T05:09:03.414Z,81.866455
2023-01-15T05:10:13.214Z,81.970215
2023-01-15T05:11:21.957Z,81.970215
2023-01-15T05:12:30.689Z,81.762695
2023-01-15T05:13:39.464Z,81.45752
2023-01-15T05:14:47.090Z,81.866455
2023-01-15T05:15:55.991Z,81.665039
2023-01-15T05:17:03.649Z,81.866455
2023-01-15T05:18:11.734Z,81.665039
2023-01-15T05:19:19.386Z,81.45752
2023-01-15T05:20:28.084Z,81.45752
2023-01-15T05:21:35.924Z,81.35376
2023-01-15T05:22:43.616Z,81.317139
2023-01-15T05:23:51.301Z,81.622314
2023-01-15T05:25:00.011Z,81.970215
2023-01-15T05:26:09.775Z,81.420898
2023-01-15T05:27:18.524Z,81.213379
2023-01-15T05:28:27.191Z,81.109619
2023-01-15T05:29:34.949Z,81.622314
2023-01-15T05:30:43.730Z,81.622314
2023-01-15T05:31:52.336Z,81.005859
2023-01-15T05:33:02.164Z,80.804443
2023-01-15T05:34:11.906Z,81.317139
2023-01-15T05:35:21.580Z,81.420898
2023-01-15T05:36:29.875Z,81.622314
2023-01-15T05:37:37.574Z,81.317139
2023-01-15T05:38:46.277Z,81.317139
2023-01-15T05:39:54.996Z,81.005859
2023-01-15T05:41:04.743Z,80.187988
2023-01-15T05:42:13.530Z,79.840088
2023-01-15T05:43:22.202Z,80.047607
2023-01-15T05:44:31.954Z,80.249023
2023-01-15T05:45:41.763Z,79.943848
2023-01-15T05:46:51.479Z,80.151367
2023-01-15T05:48:01.147Z,79.327393
2023-01-15T05:49:07.841Z,79.327393
2023-01-15T05:50:15.545Z,78.918457
2023-01-15T05:51:25.259Z,78.399658
2023-01-15T05:52:34.967Z,78.265381
2023-01-15T05:53:43.671Z,78.674316
2023-01-15T05:54:51.380Z,78.778076
2023-01-15T05:55:59.456Z,78.466797
2023-01-15T05:57:06.294Z,78.979492
2023-01-15T05:58:15.956Z,78.466797
2023-01-15T05:59:24.654Z,78.265381
2023-01-15T06:00:32.359Z,78.778076
2023-01-15T06:01:42.906Z,78.466797
2023-01-15T06:02:52.702Z,78.363037
2023-01-15T06:04:02.499Z,78.778076
2023-01-15T06:05:12.062Z,78.265381
2023-01-15T06:06:20.787Z,78.363037
2023-01-15T06:07:29.573Z,77.746582
2023-01-15T06:08:39.273Z,77.545166
2023-01-15T06:09:46.961Z,77.612305
2023-01-15T06:10:56.735Z,76.99585
2023-01-15T06:12:06.358Z,76.580811
2023-01-15T06:13:14.073Z,76.135254
2023-01-15T06:14:22.824Z,76.550293
2023-01-15T06:15:30.594Z,76.647949
2023-01-15T06:16:41.415Z,76.446533
2023-01-15T06:17:48.560Z,76.855469
2023-01-15T06:18:57.322Z,76.855469
2023-01-15T06:20:07.092Z,77.264404
2023-01-15T06:21:14.858Z,77.508545
2023-01-15T06:22:23.597Z,77.197266
2023-01-15T06:23:33.254Z,77.301025
2023-01-15T06:24:43.080Z,77.197266
2023-01-15T06:25:51.792Z,77.099609
2023-01-15T06:27:01.545Z,77.264404
2023-01-15T06:28:08.216Z,76.959229
2023-01-15T06:29:15.925Z,76.446533
2023-01-15T06:30:24.697Z,76.751709
2023-01-15T06:31:34.444Z,76.409912
2023-01-15T06:32:43.124Z,76.715088
2023-01-15T06:33:52.871Z,76.818848
2023-01-15T06:35:02.592Z,76.513672
2023-01-15T06:36:10.336Z,76.617432
2023-01-15T06:37:18.027Z,76.715088
2023-01-15T06:38:27.689Z,76.782227
2023-01-15T06:39:35.381Z,76.171875
2023-01-15T06:40:43.054Z,76.989746
2023-01-15T06:41:50.721Z,76.782227
2023-01-15T06:42:59.740Z,77.160645
2023-01-15T06:44:09.640Z,77.67334
2023-01-15T06:45:19.182Z,77.325439
2023-01-15T06:46:28.947Z,77.532959
2023-01-15T06:47:38.635Z,77.392578
2023-01-15T06:48:48.411Z,77.459717
2023-01-15T06:49:58.175Z,77.526855
2023-01-15T06:51:08.042Z,77.630615
2023-01-15T06:52:17.784Z,77.386475
2023-01-15T06:53:26.556Z,77.288818
2023-01-15T06:54:33.245Z,77.252197
2023-01-15T06:55:41.932Z,77.148438
2023-01-15T06:56:51.693Z,77.148438
2023-01-15T06:58:00.359Z,77.008057
2023-01-15T06:59:11.924Z,76.904297
2023-01-15T07:00:19.808Z,76.257324
2023-01-15T07:01:27.695Z,75.714111
2023-01-15T07:02:35.350Z,75.506592
2023-01-15T07:03:43.230Z,75.268555
2023-01-15T07:04:51.906Z,75.067139
2023-01-15T07:06:01.677Z,74.621582
2023-01-15T07:07:09.376Z,74.725342
2023-01-15T07:08:17.021Z,74.725342
2023-01-15T07:09:26.811Z,74.829102
2023-01-15T07:10:35.691Z,74.621582
2023-01-15T07:11:44.378Z,74.829102
2023-01-15T07:12:54.069Z,74.829102
2023-01-15T07:14:02.748Z,74.725342
2023-01-15T07:15:11.423Z,74.725342
2023-01-15T07:16:19.179Z,74.829102
2023-01-15T07:17:28.878Z,74.420166
2023-01-15T07:18:38.557Z,74.420166
2023-01-15T07:19:45.411Z,74.517822
2023-01-15T07:20:55.155Z,74.078369
2023-01-15T07:22:03.866Z,74.383545
2023-01-15T07:23:14.561Z,74.316406
2023-01-15T07:24:21.348Z,74.182129
2023-01-15T07:25:30.077Z,74.725342
2023-01-15T07:26:38.761Z,74.725342
2023-01-15T07:27:46.508Z,74.621582
2023-01-15T07:28:55.174Z,75.030518
2023-01-15T07:30:03.918Z,75.231934
2023-01-15T07:31:12.824Z,74.926758
2023-01-15T07:32:21.504Z,74.926758
2023-01-15T07:33:31.387Z,75.030518
2023-01-15T07:34:40.081Z,74.926758
2023-01-15T07:35:48.702Z,74.926758
2023-01-15T07:36:55.380Z,75.231934
2023-01-15T07:38:05.087Z,75.030518
2023-01-15T07:39:15.918Z,75.134277
2023-01-15T07:40:22.613Z,74.725342
2023-01-15T07:41:31.324Z,74.584961
2023-01-15T07:42:38.056Z,74.487305
2023-01-15T07:43:46.777Z,74.688721
2023-01-15T07:44:53.563Z,74.89624
2023-01-15T07:46:03.272Z,74.79248
2023-01-15T07:47:10.912Z,75.134277
2023-01-15T07:48:20.706Z,74.926758
2023-01-15T07:49:30.438Z,74.688721
2023-01-15T07:50:39.162Z,74.487305
2023-01-15T07:51:46.368Z,74.79248
2023-01-15T07:52:56.113Z,74.688721
2023-01-15T07:54:05.022Z,74.584961
2023-01-15T07:55:12.933Z,74.688721
2023-01-15T07:56:22.544Z,74.487305
2023-01-15T07:57:29.279Z,74.584961
2023-01-15T07:58:37.972Z,74.79248
2023-01-15T07:59:45.655Z,74.584961
2023-01-15T08:00:55.402Z,74.79248
2023-01-15T08:02:02.216Z,74.89624
2023-01-15T08:03:09.858Z,75.402832
2023-01-15T08:04:19.592Z,75.543213
2023-01-15T08:05:28.281Z,77.142334
2023-01-15T08:06:38.011Z,78.369141
2023-01-15T08:07:47.817Z,78.405762
2023-01-15T08:08:55.559Z,79.321289
2023-01-15T08:10:05.272Z,80.480957
2023-01-15T08:11:14.008Z,80.480957
2023-01-15T08:12:22.789Z,80.786133
2023-01-15T08:13:31.647Z,80.688477
2023-01-15T08:14:40.382Z,80.853271
2023-01-15T08:15:49.082Z,81.463623
2023-01-15T08:16:57.785Z,81.262207
2023-01-15T08:18:07.468Z,80.957031
2023-01-15T08:19:15.419Z,80.200195
2023-01-15T08:20:23.011Z,79.89502
2023-01-15T08:21:32.859Z,78.430176
2023-01-15T08:22:41.509Z,78.295898
2023-01-15T08:23:51.188Z,78.295898
2023-01-15T08:24:59.888Z,78.192139
2023-01-15T08:26:09.562Z,77.484131
2023-01-15T08:27:18.255Z,78.881836
2023-01-15T08:28:28.086Z,80.047607
2023-01-15T08:29:35.797Z,80.865479
2023-01-15T08:30:45.519Z,80.969238
2023-01-15T08:31:55.230Z,81.207275
2023-01-15T08:33:04.949Z,81.414795
2023-01-15T08:34:13.592Z,81.616211
2023-01-15T08:35:23.292Z,81.92749
2023-01-15T08:36:32.014Z,81.92749
2023-01-15T08:37:40.683Z,81.884766
2023-01-15T08:38:49.529Z,81.82373
2023-01-15T08:39:59.194Z,81.787109
2023-01-15T08:41:07.884Z,82.025146
2023-01-15T08:42:16.688Z,82.232666
2023-01-15T08:43:25.338Z,82.232666
2023-01-15T08:44:35.023Z,82.537842
2023-01-15T08:45:44.686Z,82.232666
2023-01-15T08:46:54.385Z,82.537842
2023-01-15T08:48:03.120Z,82.232666
2023-01-15T08:49:10.814Z,82.196045
2023-01-15T08:50:20.545Z,81.884766
2023-01-15T08:51:30.285Z,82.092285
2023-01-15T08:52:40.110Z,81.884766
2023-01-15T08:53:48.992Z,81.744385
2023-01-15T08:54:58.325Z,80.993652
2023-01-15T08:56:07.999Z,80.889893
2023-01-15T08:57:14.666Z,80.0354
2023-01-15T08:58:24.349Z,79.931641
2023-01-15T08:59:33.060Z,79.730225
2023-01-15T09:00:41.745Z,79.589844
2023-01-15T09:01:49.516Z,79.486084
2023-01-15T09:02:59.150Z,79.284668
2023-01-15T09:04:08.853Z,79.589844
2023-01-15T09:05:18.611Z,79.083252
2023-01-15T09:06:27.477Z,78.839111
2023-01-15T09:07:37.306Z,78.430176
2023-01-15T09:08:46.840Z,77.923584
2023-01-15T09:09:55.521Z,78.02124
2023-01-15T09:11:04.208Z,77.514648
2023-01-15T09:12:13.881Z,77.581787
2023-01-15T09:13:23.561Z,77.581787
2023-01-15T09:14:56.182Z,77.374268
2023-01-15T09:15:42.888Z,77.270508
2023-01-15T09:16:50.689Z,77.270508
2023-01-15T09:18:00.305Z,76.965332
2023-01-15T09:19:09.225Z,76.45874
2023-01-15T09:20:18.897Z,76.251221
2023-01-15T09:21:28.597Z,75.915527
2023-01-15T09:22:37.379Z,76.116943
2023-01-15T09:23:46.047Z,75.506592
2023-01-15T09:24:53.764Z,75.915527
2023-01-15T09:26:03.474Z,75.097656
2023-01-15T09:27:11.205Z,74.145508
2023-01-15T09:28:20.898Z,73.431396
2023-01-15T09:29:28.575Z,72.277832
2023-01-15T09:30:37.344Z,70.715332
2023-01-15T09:31:46.976Z,69.702148
2023-01-15T09:32:53.677Z,69.665527
2023-01-15T09:34:03.395Z,69.158936
2023-01-15T09:35:13.071Z,69.262695
2023-01-15T09:36:21.729Z,69.262695
2023-01-15T09:37:29.411Z,68.95752
2023-01-15T09:38:39.109Z,68.31665
2023-01-15T09:39:48.969Z,68.212891
2023-01-15T09:40:58.819Z,67.602539
2023-01-15T09:42:07.481Z,67.706299
2023-01-15T09:43:16.497Z,67.706299
2023-01-15T09:44:26.214Z,66.96167
2023-01-15T09:45:36.100Z,66.455078
2023-01-15T09:46:45.920Z,65.203857
2023-01-15T09:47:52.657Z,65.203857
2023-01-15T09:49:01.323Z,65.100098
2023-01-15T09:50:11.053Z,64.898682
2023-01-15T09:51:27.806Z,64.562988
2023-01-15T09:52:36.483Z,64.764404
2023-01-15T09:53:45.167Z,64.056396
2023-01-15T09:54:54.868Z,64.056396
2023-01-15T09:56:04.564Z,64.056396
2023-01-15T09:57:12.244Z,64.361572
2023-01-15T09:58:19.905Z,64.361572
2023-01-15T09:59:29.611Z,64.154053
2023-01-15T10:00:39.247Z,64.361572
2023-01-15T10:01:47.943Z,63.952637
2023-01-15T10:02:56.665Z,64.361572
2023-01-15T10:04:05.425Z,64.056396
2023-01-15T10:05:15.097Z,63.952637
2023-01-15T10:06:22.747Z,63.751221
2023-01-15T10:07:31.407Z,64.154053
2023-01-15T10:08:41.122Z,63.952637
2023-01-15T10:09:49.816Z,64.257812
2023-01-15T10:10:58.484Z,64.056396
2023-01-15T10:12:07.171Z,64.361572
2023-01-15T10:13:16.844Z,64.697266
2023-01-15T10:14:26.533Z,65.301514
2023-01-15T10:15:35.354Z,66.656494
2023-01-15T10:16:42.936Z,68.31665
2023-01-15T10:17:52.657Z,69.873047
2023-01-15T10:19:02.402Z,71.636963
2023-01-15T10:20:11.077Z,74.279785
2023-01-15T10:21:19.765Z,76.733398
2023-01-15T10:22:28.468Z,78.540039
2023-01-15T10:23:38.125Z,79.638672
2023-01-15T10:24:46.848Z,80.79834
2023-01-15T10:25:55.625Z,81.04248
2023-01-15T10:27:05.317Z,80.877686
2023-01-15T10:28:16.715Z,81.079102
2023-01-15T10:29:24.677Z,81.463623
2023-01-15T10:30:34.323Z,81.500244
2023-01-15T10:31:44.023Z,81.945801
2023-01-15T10:33:01.821Z,81.945801
2023-01-15T10:34:04.350Z,82.293701
2023-01-15T10:35:12.029Z,82.434082
2023-01-15T10:36:21.694Z,82.843018
2023-01-15T10:37:30.390Z,82.989502
2023-01-15T10:38:40.110Z,83.605957
2023-01-15T10:39:48.813Z,83.746338
2023-01-15T10:40:58.511Z,83.850098
2023-01-15T10:42:08.181Z,84.399414
2023-01-15T10:43:14.933Z,84.503174
2023-01-15T10:44:22.641Z,84.814453
2023-01-15T10:45:32.367Z,84.606934
2023-01-15T10:46:41.146Z,85.015869
2023-01-15T10:47:49.794Z,85.430908
2023-01-15T10:48:58.560Z,85.571289
2023-01-15T10:50:08.246Z,85.778809
2023-01-15T10:51:17.988Z,85.980225
2023-01-15T10:52:25.663Z,86.535645
2023-01-15T10:53:34.350Z,86.431885
2023-01-15T10:54:44.143Z,86.743164
2023-01-15T10:55:52.819Z,86.743164
2023-01-15T10:57:02.517Z,86.639404
2023-01-15T10:58:11.396Z,86.431885
2023-01-15T10:59:19.927Z,86.743164
2023-01-15T11:00:29.710Z,86.846924
2023-01-15T11:01:38.474Z,86.950684
2023-01-15T11:02:48.164Z,86.950684
2023-01-15T11:03:57.790Z,86.950684
2023-01-15T11:05:07.479Z,86.743164
2023-01-15T11:06:16.253Z,87.1521
2023-01-15T11:07:26.911Z,87.1521
2023-01-15T11:09:07.101Z,87.1521
2023-01-15T11:09:47.234Z,86.950684
2023-01-15T11:10:56.914Z,86.578369
2023-01-15T11:12:06.629Z,86.16333
2023-01-15T11:13:16.306Z,85.961914
2023-01-15T11:14:24.981Z,86.309814
2023-01-15T11:15:34.770Z,86.517334
2023-01-15T11:16:44.568Z,86.71875
2023-01-15T11:17:53.091Z,86.82251
2023-01-15T11:19:02.780Z,87.133789
2023-01-15T11:20:12.494Z,86.82251
2023-01-15T11:21:22.165Z,86.92627
2023-01-15T11:22:29.821Z,87.237549
2023-01-15T11:23:38.514Z,87.750244
2023-01-15T11:24:48.189Z,87.957764
2023-01-15T11:25:57.844Z,88.098145
2023-01-15T11:27:06.523Z,88.098145
2023-01-15T11:28:16.189Z,88.452148
2023-01-15T11:29:24.887Z,88.616943
2023-01-15T11:30:34.561Z,88.720703
2023-01-15T11:31:42.218Z,88.757324
2023-01-15T11:32:50.874Z,89.068604
2023-01-15T11:34:00.571Z,89.379883
2023-01-15T11:35:10.252Z,89.685059
2023-01-15T11:36:18.943Z,89.788818
2023-01-15T11:37:27.614Z,90.307617
2023-01-15T11:38:37.282Z,90.447998
2023-01-15T11:39:46.967Z,90.246582
2023-01-15T11:40:54.633Z,90.655518
2023-01-15T11:42:03.299Z,90.759277
2023-01-15T11:43:12.987Z,91.174316
2023-01-15T11:44:22.647Z,91.998291
2023-01-15T11:45:31.363Z,93.07251
2023-01-15T11:46:41.190Z,94.311523
2023-01-15T11:47:50.740Z,94.622803
2023-01-15T11:49:00.418Z,95.281982
2023-01-15T11:50:09.084Z,95.800781
2023-01-15T11:51:16.742Z,96.624756
2023-01-15T11:52:25.461Z,96.97876
2023-01-15T11:53:34.112Z,97.186279
2023-01-15T11:54:43.802Z,97.601318
2023-01-15T11:55:53.457Z,97.290039
2023-01-15T11:57:02.094Z,97.290039
2023-01-15T11:58:11.804Z,96.97876
2023-01-15T11:59:18.510Z,97.125244
2023-01-15T12:00:27.160Z,97.229004
2023-01-15T12:01:36.946Z,97.540283
2023-01-15T12:02:46.663Z,98.059082
2023-01-15T12:03:56.504Z,98.266602
2023-01-15T12:05:05.035Z,98.370361
2023-01-15T12:06:14.685Z,98.571777
2023-01-15T12:07:24.354Z,98.571777
2023-01-15T12:08:34.018Z,98.620605
2023-01-15T12:09:42.730Z,98.931885
2023-01-15T12:10:52.407Z,99.34082
2023-01-15T12:12:01.082Z,99.243164
2023-01-15T12:13:09.766Z,99.6521
2023-01-15T12:14:19.436Z,99.993896
2023-01-15T12:15:28.119Z,99.993896
2023-01-15T12:16:37.775Z,99.993896
2023-01-15T12:17:46.484Z,99.993896
2023-01-15T12:18:55.169Z,99.993896
2023-01-15T12:20:03.842Z,99.993896
2023-01-15T12:21:12.507Z,99.993896
2023-01-15T12:22:21.206Z,99.993896
2023-01-15T12:23:29.831Z,99.993896
2023-01-15T12:24:40.232Z,99.993896
2023-01-15T12:25:50.801Z,99.993896
2023-01-15T12:27:01.394Z,99.993896
2023-01-15T12:28:12.662Z,99.993896
2023-01-15T12:29:23.623Z,99.993896
2023-01-15T12:30:33.877Z,99.993896
2023-01-15T12:31:42.857Z,99.993896
2023-01-15T12:32:52.727Z,99.993896
2023-01-15T12:34:02.601Z,99.993896
2023-01-15T12:35:12.494Z,99.993896
2023-01-15T12:36:22.838Z,99.993896
2023-01-15T12:37:32.902Z,99.993896
2023-01-15T12:38:43.328Z,99.993896
2023-01-15T12:39:52.425Z,99.993896
2023-01-15T12:41:02.778Z,99.993896
2023-01-15T12:42:12.906Z,99.993896
2023-01-15T12:43:23.178Z,99.993896
2023-01-15T12:44:32.775Z,99.993896
2023-01-15T12:45:44.220Z,99.993896
2023-01-15T12:46:54.611Z,99.993896
2023-01-15T12:48:04.958Z,99.993896
2023-01-15T12:49:14.568Z,99.993896
2023-01-15T12:50:25.396Z,99.993896
2023-01-15T12:51:35.799Z,99.993896
2023-01-15T12:52:46.101Z,99.993896
2023-01-15T12:53:56.117Z,99.993896
2023-01-15T12:55:05.157Z,99.993896
2023-01-15T12:56:15.831Z,99.993896
2023-01-15T12:57:25.869Z,99.993896
2023-01-15T12:58:34.916Z,99.993896
2023-01-15T12:59:44.905Z,99.993896
2023-01-15T13:00:55.129Z,99.993896
2023-01-15T13:02:05.466Z,99.993896
2023-01-15T13:03:13.512Z,99.993896
2023-01-15T13:04:23.805Z,99.993896
2023-01-15T13:05:34.104Z,99.993896
2023-01-15T13:06:44.157Z,99.993896
2023-01-15T13:07:54.211Z,99.993896
2023-01-15T13:09:04.363Z,99.993896